Time;durP1;ratioP1;P1;durP2;ratioP2;P2;SDS_P1;SDS_P2;PMS_P1;PMS_P2;Temp;Humidity;BMP_temperature;BMP_pressure;BME280_temperature;BME280_humidity;BME280_pressure;Samples;Min_cycle;Max_cycle;Signal;HPM_P1;HPM_P2
2023/06/15 00:00:57;;;;;;;0.50;0.40;;;16.90;99.90;;;;;;5012527;28;20466;-83
2023/06/15 00:03:25;;;;;;;0.50;0.40;;;16.90;99.90;;;;;;5012196;28;20447;-84
2023/06/15 00:05:52;;;;;;;0.50;0.40;;;16.90;99.90;;;;;;5012788;28;20893;-84
2023/06/15 00:08:19;;;;;;;0.50;0.30;;;16.80;99.90;;;;;;5012281;28;20471;-84
2023/06/15 00:10:47;;;;;;;0.50;0.40;;;16.80;99.90;;;;;;5012423;28;20443;-84
2023/06/15 00:13:14;;;;;;;0.50;0.40;;;16.70;99.90;;;;;;5012280;28;20474;-82
2023/06/15 00:15:41;;;;;;;0.50;0.40;;;16.70;99.90;;;;;;5012132;28;21029;-84
2023/06/15 00:18:08;;;;;;;0.50;0.40;;;16.70;99.90;;;;;;5011864;28;20957;-84
2023/06/15 00:20:35;;;;;;;0.50;0.33;;;16.60;99.90;;;;;;5012175;28;20453;-85
2023/06/15 00:23:02;;;;;;;0.50;0.40;;;16.60;99.90;;;;;;5012393;28;20482;-84
2023/06/15 00:25:30;;;;;;;0.50;0.40;;;16.60;99.90;;;;;;5012150;28;20466;-85
2023/06/15 00:30:42;;;;;;;0.50;0.40;;;16.60;99.90;;;;;;5005636;28;20426;-84
2023/06/15 00:33:09;;;;;;;0.50;0.37;;;16.60;99.90;;;;;;5011849;28;20530;-84
2023/06/15 00:35:36;;;;;;;0.50;0.40;;;16.50;99.90;;;;;;5011952;28;20498;-84
2023/06/15 00:38:03;;;;;;;0.50;0.40;;;16.50;99.90;;;;;;5012122;28;20539;-84
2023/06/15 00:40:30;;;;;;;1.43;1.33;;;16.50;99.90;;;;;;5012260;28;20546;-83
2023/06/15 00:42:59;;;;;;;0.50;0.40;;;16.50;99.90;;;;;;5012254;28;20451;-83
2023/06/15 00:45:25;;;;;;;0.63;0.60;;;16.50;99.90;;;;;;5012798;28;20565;-83
2023/06/15 00:47:52;;;;;;;0.50;0.40;;;16.40;99.90;;;;;;5021330;28;21032;-84
2023/06/15 00:50:19;;;;;;;0.50;0.40;;;16.40;99.90;;;;;;5025543;28;20467;-83
2023/06/15 00:52:47;;;;;;;0.50;0.37;;;16.40;99.90;;;;;;5020180;28;20458;-84
2023/06/15 00:55:14;;;;;;;0.50;0.30;;;16.40;99.90;;;;;;5016957;28;20530;-84
2023/06/15 00:57:44;;;;;;;0.50;0.40;;;16.30;99.90;;;;;;5017086;28;20865;-84
2023/06/15 01:00:15;;;;;;;0.50;0.40;;;16.30;99.90;;;;;;5017327;28;20881;-84
2023/06/15 01:02:43;;;;;;;0.50;0.40;;;16.30;99.90;;;;;;5017188;28;20550;-84
2023/06/15 01:05:12;;;;;;;0.70;0.70;;;16.20;99.90;;;;;;5016620;28;20471;-83
2023/06/15 01:07:47;;;;;;;0.50;0.40;;;16.20;99.90;;;;;;5016690;28;20475;-84
2023/06/15 01:10:16;;;;;;;0.50;0.40;;;16.20;99.90;;;;;;5017437;28;20502;-84
2023/06/15 01:12:45;;;;;;;0.50;0.40;;;16.10;99.90;;;;;;5016940;28;20450;-84
2023/06/15 01:15:13;;;;;;;0.50;0.40;;;16.10;99.90;;;;;;5016889;28;20466;-85
2023/06/15 01:17:45;;;;;;;0.50;0.40;;;16.10;99.90;;;;;;5017427;28;20999;-83
2023/06/15 01:20:21;;;;;;;0.50;0.30;;;16.10;99.90;;;;;;5023840;28;20443;-84
2023/06/15 01:22:58;;;;;;;0.50;0.40;;;16.10;99.90;;;;;;5022573;28;20442;-84
2023/06/15 01:25:33;;;;;;;0.50;0.40;;;16.00;99.90;;;;;;5020598;28;20466;-84
2023/06/15 01:28:04;;;;;;;0.50;0.50;;;16.00;99.90;;;;;;5017680;28;20478;-84
2023/06/15 01:30:34;;;;;;;0.50;0.40;;;16.00;99.90;;;;;;5020678;28;20934;-84
2023/06/15 01:33:01;;;;;;;0.50;0.40;;;16.00;99.90;;;;;;5022068;28;20446;-84
2023/06/15 01:35:28;;;;;;;0.50;0.33;;;16.00;99.90;;;;;;5020664;28;20986;-86
2023/06/15 01:37:55;;;;;;;0.50;0.40;;;15.90;99.90;;;;;;5021533;28;21034;-84
2023/06/15 01:40:22;;;;;;;0.50;0.40;;;15.90;99.90;;;;;;5020346;28;20526;-84
2023/06/15 01:42:51;;;;;;;0.50;0.40;;;15.90;99.90;;;;;;5021733;28;20443;-84
2023/06/15 01:45:22;;;;;;;0.60;0.60;;;15.80;99.90;;;;;;5020941;28;21063;-84
2023/06/15 01:47:49;;;;;;;0.50;0.40;;;15.80;99.90;;;;;;5020195;28;20513;-84
2023/06/15 01:50:18;;;;;;;0.50;0.40;;;15.70;99.90;;;;;;5020611;28;20461;-84
2023/06/15 01:52:45;;;;;;;0.50;0.40;;;15.70;99.90;;;;;;5020638;28;20474;-84
2023/06/15 01:55:12;;;;;;;1.67;1.57;;;15.60;99.90;;;;;;5020090;28;20458;-84
2023/06/15 01:57:40;;;;;;;16.23;2.40;;;15.70;99.90;;;;;;5013053;28;20494;-85
2023/06/15 02:00:10;;;;;;;0.50;0.40;;;15.70;99.90;;;;;;5019769;28;20541;-84
2023/06/15 02:02:39;;;;;;;0.50;0.40;;;15.70;99.90;;;;;;5020734;28;20456;-84
2023/06/15 02:05:07;;;;;;;0.50;0.40;;;15.60;99.90;;;;;;5019588;28;20469;-84
2023/06/15 02:07:34;;;;;;;0.50;0.40;;;15.60;99.90;;;;;;5024881;28;20522;-84
2023/06/15 02:10:01;;;;;;;1.63;1.53;;;15.60;99.90;;;;;;5029198;28;20478;-83
2023/06/15 02:12:27;;;;;;;0.50;0.40;;;15.60;99.90;;;;;;5022204;28;20451;-84
2023/06/15 02:14:55;;;;;;;0.50;0.40;;;15.60;99.90;;;;;;5019657;28;20990;-85
2023/06/15 02:17:24;;;;;;;0.50;0.40;;;15.50;99.90;;;;;;5031803;28;20446;-83
2023/06/15 02:19:52;;;;;;;0.50;0.40;;;15.50;99.90;;;;;;5033587;28;20509;-84
2023/06/15 02:22:19;;;;;;;0.50;0.50;;;15.50;99.90;;;;;;5033382;28;20510;-82
2023/06/15 02:24:46;;;;;;;0.50;0.40;;;15.40;99.90;;;;;;5033455;28;20499;-83
2023/06/15 02:27:13;;;;;;;0.50;0.40;;;15.40;99.90;;;;;;5024043;28;20517;-85
2023/06/15 02:29:40;;;;;;;0.50;0.40;;;15.30;99.90;;;;;;5011697;28;20475;-85
2023/06/15 02:32:08;;;;;;;1.07;1.07;;;15.30;99.90;;;;;;5019630;28;20450;-84
2023/06/15 02:34:36;;;;;;;0.50;0.40;;;15.30;99.90;;;;;;5019567;28;20471;-84
2023/06/15 02:37:05;;;;;;;0.50;0.40;;;15.30;99.90;;;;;;5019528;28;20459;-85
2023/06/15 02:39:32;;;;;;;0.50;0.40;;;15.40;99.90;;;;;;5019600;28;20455;-84
2023/06/15 02:41:59;;;;;;;0.50;0.40;;;15.40;99.90;;;;;;5018370;28;20526;-84
2023/06/15 02:44:26;;;;;;;1.10;1.03;;;15.30;99.90;;;;;;5018930;28;21045;-84
2023/06/15 02:46:53;;;;;;;0.50;0.40;;;15.30;99.90;;;;;;5019051;28;20479;-85
2023/06/15 02:49:19;;;;;;;0.50;0.40;;;15.30;99.90;;;;;;5019497;28;20587;-84
2023/06/15 02:51:46;;;;;;;0.50;0.40;;;15.30;99.90;;;;;;5018546;28;20458;-85
2023/06/15 02:54:15;;;;;;;0.60;0.60;;;15.20;99.90;;;;;;5019068;28;20463;-85
2023/06/15 02:56:42;;;;;;;0.50;0.40;;;15.20;99.90;;;;;;5010478;28;20519;-84
2023/06/15 02:59:09;;;;;;;0.50;0.40;;;15.20;99.90;;;;;;5018741;28;20439;-84
2023/06/15 03:01:38;;;;;;;0.50;0.40;;;15.20;99.90;;;;;;5017899;28;20593;-84
2023/06/15 03:04:09;;;;;;;0.50;0.40;;;15.20;99.90;;;;;;5018712;28;20489;-84
2023/06/15 03:06:36;;;;;;;0.50;0.40;;;15.10;99.90;;;;;;5018746;28;20538;-81
2023/06/15 03:09:04;;;;;;;0.50;0.40;;;15.10;99.90;;;;;;5020073;28;20510;-80
2023/06/15 03:11:32;;;;;;;0.73;0.73;;;15.10;99.90;;;;;;5020755;28;20451;-82
2023/06/15 03:13:59;;;;;;;0.50;0.40;;;15.00;99.90;;;;;;5021288;28;20510;-83
2023/06/15 03:16:25;;;;;;;0.50;0.40;;;15.00;99.90;;;;;;5023010;28;20502;-82
2023/06/15 03:18:53;;;;;;;0.50;0.40;;;14.90;99.90;;;;;;5021382;28;20431;-83
2023/06/15 03:21:22;;;;;;;0.50;0.40;;;14.90;99.90;;;;;;5020929;28;20439;-84
2023/06/15 03:23:50;;;;;;;0.50;0.37;;;14.80;99.90;;;;;;5021211;28;21086;-84
2023/06/15 03:26:17;;;;;;;0.50;0.40;;;14.80;99.90;;;;;;5021666;28;20446;-85
2023/06/15 03:28:46;;;;;;;0.50;0.40;;;14.80;99.90;;;;;;5013650;28;20471;-84
2023/06/15 03:31:17;;;;;;;0.50;0.40;;;14.80;99.90;;;;;;5021723;28;20475;-84
2023/06/15 03:33:45;;;;;;;0.50;0.40;;;14.80;99.90;;;;;;5020614;28;20482;-84
2023/06/15 03:36:13;;;;;;;0.50;0.40;;;14.80;99.90;;;;;;5023198;28;20482;-84
2023/06/15 03:38:41;;;;;;;0.50;0.40;;;14.80;99.90;;;;;;5019973;28;20593;-84
2023/06/15 03:41:08;;;;;;;0.50;0.40;;;14.80;99.90;;;;;;5019661;28;20450;-84
2023/06/15 03:43:37;;;;;;;0.60;0.60;;;14.80;99.90;;;;;;5025127;28;20447;-84
2023/06/15 03:46:05;;;;;;;0.50;0.40;;;14.80;99.90;;;;;;5022545;28;20962;-85
2023/06/15 03:48:32;;;;;;;0.50;0.40;;;14.80;99.90;;;;;;5019930;28;20479;-84
2023/06/15 03:50:59;;;;;;;0.50;0.30;;;14.90;99.90;;;;;;5022194;28;20860;-84
2023/06/15 03:53:26;;;;;;;0.50;0.40;;;14.90;99.90;;;;;;5021463;28;20454;-83
2023/06/15 03:55:53;;;;;;;0.50;0.40;;;14.90;99.90;;;;;;5021490;28;20498;-83
2023/06/15 03:58:20;;;;;;;0.50;0.40;;;14.90;99.90;;;;;;5022264;28;20449;-83
2023/06/15 04:00:46;;;;;;;0.50;0.50;;;14.90;99.90;;;;;;5023496;28;20467;-85
2023/06/15 04:03:15;;;;;;;0.50;0.37;;;14.90;99.90;;;;;;5024821;28;20966;-84
2023/06/15 04:05:42;;;;;;;0.50;0.40;;;14.90;99.90;;;;;;5025626;28;20481;-84
2023/06/15 04:08:09;;;;;;;0.50;0.40;;;15.00;99.90;;;;;;5025040;28;20439;-84
2023/06/15 04:10:36;;;;;;;0.50;0.40;;;15.00;99.90;;;;;;5026892;28;20529;-83
2023/06/15 04:13:04;;;;;;;0.50;0.40;;;15.10;99.90;;;;;;5027070;28;20470;-83
2023/06/15 04:15:31;;;;;;;0.50;0.40;;;15.10;99.90;;;;;;5025677;28;20489;-83
2023/06/15 04:18:00;;;;;;;0.50;0.40;;;15.20;99.90;;;;;;5025586;28;20519;-83
2023/06/15 04:20:30;;;;;;;0.50;0.40;;;15.20;99.90;;;;;;5025406;28;20450;-83
2023/06/15 04:22:57;;;;;;;0.50;0.40;;;15.20;99.90;;;;;;5026225;28;20473;-83
2023/06/15 04:25:24;;;;;;;0.50;0.40;;;15.30;99.90;;;;;;5025695;28;20461;-83
2023/06/15 04:27:52;;;;;;;0.50;0.30;;;15.30;99.90;;;;;;5025611;28;20510;-82
2023/06/15 04:30:24;;;;;;;0.50;0.40;;;15.40;99.90;;;;;;5025845;28;20474;-83
2023/06/15 04:32:57;;;;;;;0.50;0.40;;;15.40;99.90;;;;;;5017744;28;20447;-84
2023/06/15 04:35:24;;;;;;;0.50;0.40;;;15.50;99.90;;;;;;5023113;28;20467;-85
2023/06/15 04:37:53;;;;;;;0.50;0.40;;;15.60;99.90;;;;;;5025746;28;20474;-80
2023/06/15 04:40:21;;;;;;;0.50;0.40;;;15.60;99.90;;;;;;5024562;28;20449;-83
2023/06/15 04:42:48;;;;;;;0.50;0.40;;;15.60;99.90;;;;;;5013335;28;20445;-85
2023/06/15 04:45:14;;;;;;;0.50;0.40;;;15.70;99.90;;;;;;5021126;28;20875;-84
2023/06/15 04:47:42;;;;;;;0.50;0.40;;;15.80;99.90;;;;;;5020210;28;20438;-83
2023/06/15 04:50:13;;;;;;;0.50;0.40;;;15.80;99.90;;;;;;5019657;28;20485;-84
2023/06/15 04:52:40;;;;;;;0.50;0.40;;;15.90;99.90;;;;;;5020596;28;20482;-86
2023/06/15 04:55:10;;;;;;;0.50;0.40;;;16.00;99.90;;;;;;5019766;28;20474;-85
2023/06/15 04:57:37;;;;;;;1.13;1.13;;;16.10;99.90;;;;;;5018705;28;20545;-84
2023/06/15 05:00:07;;;;;;;0.50;0.40;;;16.10;99.90;;;;;;5017707;28;20497;-80
2023/06/15 05:02:34;;;;;;;0.50;0.40;;;16.30;99.90;;;;;;5017240;28;20445;-85
2023/06/15 05:05:00;;;;;;;0.50;0.40;;;16.30;99.90;;;;;;5022865;28;20469;-83
2023/06/15 05:07:27;;;;;;;0.50;0.40;;;16.40;99.90;;;;;;5025102;28;20506;-82
2023/06/15 05:09:54;;;;;;;0.50;0.40;;;16.40;99.90;;;;;;5024345;28;20542;-81
2023/06/15 05:12:23;;;;;;;0.50;0.40;;;16.50;99.90;;;;;;5025621;28;20450;-82
2023/06/15 05:14:50;;;;;;;0.80;0.77;;;16.60;99.90;;;;;;5025486;28;20466;-82
2023/06/15 05:17:17;;;;;;;0.50;0.40;;;16.70;99.90;;;;;;5024128;28;20445;-83
2023/06/15 05:19:44;;;;;;;0.50;0.40;;;16.80;99.90;;;;;;5025104;28;20446;-83
2023/06/15 05:22:11;;;;;;;1.53;1.43;;;16.90;99.90;;;;;;5023967;28;20443;-82
2023/06/15 05:24:38;;;;;;;0.50;0.30;;;17.10;99.90;;;;;;5022091;28;20578;-82
2023/06/15 05:27:05;;;;;;;1.13;0.80;;;17.20;99.90;;;;;;5021900;28;20447;-82
2023/06/15 05:29:33;;;;;;;0.60;0.50;;;17.30;99.90;;;;;;5023512;28;20521;-82
2023/06/15 05:32:00;;;;;;;0.50;0.40;;;17.30;99.90;;;;;;5024732;28;20446;-82
2023/06/15 05:34:27;;;;;;;0.50;0.40;;;17.40;99.90;;;;;;5024372;28;20471;-81
2023/06/15 05:36:54;;;;;;;0.50;0.30;;;17.50;99.90;;;;;;5026000;28;20482;-82
2023/06/15 05:39:21;;;;;;;0.50;0.30;;;17.70;99.90;;;;;;5025872;28;20474;-82
2023/06/15 05:41:48;;;;;;;0.50;0.30;;;17.70;99.90;;;;;;5025641;28;20466;-81
2023/06/15 05:44:15;;;;;;;0.50;0.47;;;17.80;99.90;;;;;;5022154;28;20501;-83
2023/06/15 05:46:43;;;;;;;0.50;0.40;;;18.00;99.90;;;;;;5022574;28;20474;-82
2023/06/15 05:49:10;;;;;;;0.50;0.30;;;18.10;99.90;;;;;;5023631;28;20562;-81
2023/06/15 05:51:37;;;;;;;0.50;0.40;;;18.30;99.90;;;;;;5021761;28;20447;-84
2023/06/15 05:54:04;;;;;;;0.50;0.30;;;18.40;99.90;;;;;;5021883;28;20439;-84
2023/06/15 05:56:31;;;;;;;0.50;0.30;;;18.60;99.90;;;;;;5021863;28;20842;-85
2023/06/15 05:58:58;;;;;;;0.50;0.40;;;18.70;99.90;;;;;;5022375;28;20430;-86
2023/06/15 06:01:24;;;;;;;0.50;0.30;;;18.90;99.90;;;;;;5022445;28;20443;-85
2023/06/15 06:03:53;;;;;;;0.50;0.30;;;19.10;99.90;;;;;;5021266;28;20510;-86
2023/06/15 06:06:20;;;;;;;0.50;0.30;;;19.20;99.90;;;;;;5023220;28;20474;-85
2023/06/15 06:08:47;;;;;;;0.50;0.40;;;19.40;99.90;;;;;;5022435;28;20503;-86
2023/06/15 06:11:14;;;;;;;0.50;0.30;;;19.50;99.90;;;;;;5022232;28;20548;-87
2023/06/15 06:13:41;;;;;;;0.50;0.40;;;19.70;99.90;;;;;;5021908;28;20482;-85
2023/06/15 06:16:08;;;;;;;0.50;0.40;;;19.90;99.90;;;;;;5021798;28;20499;-86
2023/06/15 06:18:35;;;;;;;0.50;0.40;;;20.10;99.90;;;;;;5017906;28;20493;-85
2023/06/15 06:21:03;;;;;;;0.50;0.30;;;20.30;99.90;;;;;;5021383;28;20450;-85
2023/06/15 06:23:32;;;;;;;0.50;0.47;;;20.50;99.90;;;;;;5022549;28;20520;-85
2023/06/15 06:25:59;;;;;;;0.60;0.50;;;20.60;99.90;;;;;;5021296;28;20467;-85
2023/06/15 06:28:26;;;;;;;3.73;2.00;;;20.80;99.90;;;;;;5021122;28;20451;-85
2023/06/15 06:30:53;;;;;;;0.50;0.30;;;20.80;99.90;;;;;;5019477;28;20562;-85
2023/06/15 06:33:20;;;;;;;0.50;0.30;;;21.00;99.90;;;;;;5020075;28;20454;-85
2023/06/15 06:35:47;;;;;;;0.50;0.30;;;21.50;99.90;;;;;;5020760;28;20566;-87
2023/06/15 06:38:16;;;;;;;0.50;0.40;;;21.70;99.90;;;;;;5019713;28;20478;-84
2023/06/15 06:40:43;;;;;;;0.97;0.87;;;22.00;99.90;;;;;;5019843;28;20467;-86
2023/06/15 06:43:10;;;;;;;0.50;0.30;;;22.40;99.90;;;;;;5020156;28;20570;-86
2023/06/15 06:45:37;;;;;;;0.50;0.30;;;22.80;99.90;;;;;;5019814;28;20473;-84
2023/06/15 06:48:04;;;;;;;1.20;1.10;;;23.40;99.90;;;;;;5019335;28;20506;-86
2023/06/15 06:50:31;;;;;;;0.60;0.50;;;24.00;99.90;;;;;;5019825;28;20592;-84
2023/06/15 06:52:58;;;;;;;4.40;3.17;;;24.60;99.90;;;;;;5021278;28;20485;-85
2023/06/15 06:55:26;;;;;;;0.50;0.40;;;25.20;99.90;;;;;;5020936;28;20485;-85
2023/06/15 06:57:53;;;;;;;1.43;0.67;;;26.00;98.00;;;;;;5020045;28;20527;-84
2023/06/15 07:00:20;;;;;;;0.50;0.30;;;26.60;95.10;;;;;;5020574;28;20503;-85
2023/06/15 07:02:47;;;;;;;0.50;0.30;;;26.90;85.30;;;;;;5019436;28;20485;-85
2023/06/15 07:05:14;;;;;;;0.50;0.30;;;27.10;80.10;;;;;;5018799;28;20491;-83
2023/06/15 07:07:41;;;;;;;0.50;0.30;;;27.40;76.10;;;;;;5018127;28;20879;-84
2023/06/15 07:10:08;;;;;;;0.50;0.30;;;27.80;78.00;;;;;;5019010;28;20475;-85
2023/06/15 07:12:37;;;;;;;0.50;0.30;;;28.00;81.60;;;;;;5018424;28;20546;-84
2023/06/15 07:15:04;;;;;;;0.50;0.30;;;28.10;77.10;;;;;;5018274;28;20495;-84
2023/06/15 07:17:31;;;;;;;0.50;0.40;;;28.20;75.20;;;;;;5019021;28;20529;-83
2023/06/15 07:19:58;;;;;;;18.83;17.70;;;28.40;77.70;;;;;;5017579;28;20525;-83
2023/06/15 07:22:25;;;;;;;0.50;0.40;;;28.80;72.70;;;;;;5017177;28;20474;-85
2023/06/15 07:25:10;;;;;;;0.90;0.60;;;29.10;70.00;;;;;;5015802;28;20458;-82
2023/06/15 07:27:38;;;;;;;2.00;0.57;;;29.60;74.30;;;;;;5015973;28;20852;-84
2023/06/15 07:30:06;;;;;;;4.00;1.90;;;29.60;65.00;;;;;;5016134;28;20471;-83
2023/06/15 07:32:33;;;;;;;0.70;0.63;;;29.90;67.30;;;;;;5017252;28;20450;-83
2023/06/15 07:35:00;;;;;;;0.50;0.30;;;30.00;67.10;;;;;;5018740;28;21057;-83
2023/06/15 07:37:27;;;;;;;1.27;0.87;;;30.20;60.00;;;;;;5017797;28;20497;-85
2023/06/15 07:39:54;;;;;;;0.50;0.50;;;30.60;61.60;;;;;;5016228;28;20463;-81
2023/06/15 07:42:20;;;;;;;1.00;0.80;;;30.40;58.20;;;;;;5015980;28;20486;-81
2023/06/15 07:44:49;;;;;;;0.80;0.80;;;30.20;56.00;;;;;;5015464;28;20506;-80
2023/06/15 07:47:15;;;;;;;0.50;0.30;;;29.80;58.10;;;;;;5010367;28;20526;-82
2023/06/15 07:49:42;;;;;;;0.50;0.40;;;29.60;57.60;;;;;;5022006;28;20504;-80
2023/06/15 07:52:09;;;;;;;0.50;0.30;;;29.80;61.60;;;;;;5017230;28;20443;-83
2023/06/15 07:54:36;;;;;;;0.50;0.40;;;30.50;56.70;;;;;;5016171;28;20469;-83
2023/06/15 07:57:03;;;;;;;2.40;1.23;;;30.70;57.30;;;;;;5017188;28;20511;-82
2023/06/15 07:59:30;;;;;;;0.50;0.40;;;30.80;58.50;;;;;;5018869;28;20445;-83
2023/06/15 08:01:58;;;;;;;1.73;0.43;;;30.70;54.30;;;;;;5016928;28;20450;-81
2023/06/15 08:04:25;;;;;;;0.50;0.30;;;30.90;54.50;;;;;;5015430;28;20459;-82
2023/06/15 08:06:51;;;;;;;0.50;0.40;;;30.50;53.50;;;;;;5015758;28;20439;-82
2023/06/15 08:09:18;;;;;;;0.87;0.50;;;30.30;54.40;;;;;;5015549;28;20502;-82
2023/06/15 08:11:45;;;;;;;0.50;0.30;;;31.10;56.50;;;;;;5014059;28;20546;-81
2023/06/15 08:14:12;;;;;;;0.60;0.57;;;31.90;55.20;;;;;;5017179;28;20557;-81
2023/06/15 08:16:39;;;;;;;0.60;0.60;;;32.10;52.00;;;;;;5016612;28;20454;-83
2023/06/15 08:19:07;;;;;;;0.90;0.90;;;31.80;52.10;;;;;;5017949;28;20490;-82
2023/06/15 08:21:34;;;;;;;0.50;0.50;;;32.00;50.90;;;;;;5018713;28;20485;-82
2023/06/15 08:24:01;;;;;;;1.57;0.90;;;32.40;55.30;;;;;;5011116;28;20486;-81
2023/06/15 08:26:28;;;;;;;0.50;0.30;;;32.20;51.30;;;;;;5018054;28;20903;-81
2023/06/15 08:28:54;;;;;;;0.50;0.50;;;31.70;52.40;;;;;;5019645;28;20591;-81
2023/06/15 08:31:22;;;;;;;0.50;0.50;;;32.10;53.30;;;;;;5019264;28;20487;-83
2023/06/15 08:33:49;;;;;;;1.17;1.07;;;32.50;53.10;;;;;;5018801;28;20446;-82
2023/06/15 08:36:17;;;;;;;0.50;0.30;;;33.10;54.10;;;;;;5018580;28;20450;-82
2023/06/15 08:38:44;;;;;;;0.50;0.30;;;33.70;53.50;;;;;;5018075;28;20448;-81
2023/06/15 08:41:12;;;;;;;0.57;0.50;;;34.00;50.70;;;;;;5018528;28;20447;-82
2023/06/15 08:43:42;;;;;;;3.67;1.60;;;33.80;49.10;;;;;;5021552;28;20546;-82
2023/06/15 08:46:10;;;;;;;2.40;1.37;;;34.10;49.50;;;;;;5019192;28;20467;-81
2023/06/15 08:48:39;;;;;;;0.50;0.30;;;34.30;49.00;;;;;;5018606;28;20478;-82
2023/06/15 08:51:07;;;;;;;1.57;1.10;;;34.70;49.30;;;;;;5018318;28;20538;-82
2023/06/15 08:53:38;;;;;;;0.50;0.40;;;34.90;49.30;;;;;;5020009;28;20447;-83
2023/06/15 08:56:10;;;;;;;0.50;0.40;;;35.60;50.60;;;;;;5012734;28;20467;-83
2023/06/15 08:58:37;;;;;;;5.23;1.03;;;36.00;49.60;;;;;;5021562;28;20439;-82
2023/06/15 09:01:05;;;;;;;0.40;0.30;;;35.90;46.60;;;;;;5021274;28;20445;-82
2023/06/15 09:03:34;;;;;;;2.40;0.83;;;36.20;48.40;;;;;;5020108;28;20517;-82
2023/06/15 09:06:01;;;;;;;0.80;0.80;;;36.20;46.80;;;;;;5020834;28;20468;-82
2023/06/15 09:08:28;;;;;;;0.63;0.63;;;36.00;46.30;;;;;;5021768;28;20818;-82
2023/06/15 09:11:08;;;;;;;0.40;0.30;;;35.80;46.50;;;;;;5020098;28;20567;-83
2023/06/15 09:13:35;;;;;;;0.40;0.30;;;35.90;46.70;;;;;;5021941;28;20456;-82
2023/06/15 09:16:05;;;;;;;0.40;0.30;;;36.10;47.20;;;;;;5021924;28;20487;-83
2023/06/15 09:18:44;;;;;;;0.40;0.30;;;36.70;46.10;;;;;;5022505;28;20452;-83
2023/06/15 09:21:13;;;;;;;0.50;0.40;;;36.90;45.80;;;;;;5014530;28;20441;-83
2023/06/15 09:23:41;;;;;;;1.43;1.43;;;37.00;46.40;;;;;;5022093;28;20518;-82
2023/06/15 09:26:10;;;;;;;0.40;0.30;;;37.30;44.60;;;;;;5021079;28;21006;-80
2023/06/15 09:28:45;;;;;;;0.83;0.83;;;36.50;44.20;;;;;;5021116;28;20502;-83
2023/06/15 09:31:27;;;;;;;0.50;0.30;;;35.30;45.00;;;;;;5020903;28;20470;-82
2023/06/15 09:34:02;;;;;;;0.50;0.40;;;34.10;46.20;;;;;;5020209;28;20520;-82
2023/06/15 09:36:35;;;;;;;0.60;0.50;;;33.40;49.00;;;;;;5020894;28;20454;-82
2023/06/15 09:39:03;;;;;;;0.40;0.30;;;32.90;48.50;;;;;;5021618;28;20443;-83
2023/06/15 09:41:32;;;;;;;0.50;0.30;;;32.70;49.70;;;;;;5021815;28;20554;-82
2023/06/15 09:44:02;;;;;;;0.50;0.30;;;32.10;50.30;;;;;;5020997;28;20505;-81
2023/06/15 09:46:30;;;;;;;0.50;0.30;;;31.30;50.80;;;;;;5021722;28;20494;-82
2023/06/15 09:48:57;;;;;;;0.50;0.30;;;30.60;51.10;;;;;;5021954;28;20589;-81
2023/06/15 09:51:28;;;;;;;0.50;0.40;;;30.10;51.70;;;;;;5023002;28;20486;-82
2023/06/15 09:53:57;;;;;;;0.50;0.30;;;29.40;53.10;;;;;;5024767;28;20447;-82
2023/06/15 09:56:24;;;;;;;1.90;1.03;;;28.90;55.00;;;;;;5035219;22;20494;-79
2023/06/15 09:58:52;;;;;;;0.83;0.70;;;28.60;56.10;;;;;;5004108;28;20531;-77
2023/06/15 10:01:22;;;;;;;0.50;0.30;;;28.20;57.70;;;;;;5010329;28;20435;-79
2023/06/15 10:03:54;;;;;;;0.50;0.30;;;27.80;56.30;;;;;;5011786;28;20506;-79
2023/06/15 10:06:22;;;;;;;0.50;0.40;;;27.60;56.80;;;;;;5010469;28;20489;-79
2023/06/15 10:08:54;;;;;;;1.27;1.10;;;28.60;58.70;;;;;;5010254;28;20882;-78
2023/06/15 10:11:22;;;;;;;0.77;0.77;;;30.20;54.20;;;;;;5012760;28;20894;-81
2023/06/15 10:13:53;;;;;;;0.50;0.30;;;30.90;53.10;;;;;;5011728;28;20439;-81
2023/06/15 10:16:22;;;;;;;0.50;0.40;;;31.30;49.70;;;;;;5010506;28;20464;-80
2023/06/15 10:18:57;;;;;;;0.50;0.30;;;32.10;50.00;;;;;;5012886;28;20440;-78
2023/06/15 10:21:29;;;;;;;0.50;0.30;;;32.40;49.20;;;;;;5017689;28;20435;-80
2023/06/15 10:24:01;;;;;;;0.70;0.40;;;32.40;48.60;;;;;;5015045;28;20453;-77
2023/06/15 10:26:28;;;;;;;0.50;0.30;;;33.50;49.80;;;;;;5014369;28;20523;-80
2023/06/15 10:29:01;;;;;;;0.50;0.30;;;34.70;47.70;;;;;;5016717;28;20452;-81
2023/06/15 10:31:35;;;;;;;0.40;0.30;;;35.40;45.40;;;;;;5017538;28;20482;-81
2023/06/15 10:34:07;;;;;;;0.40;0.40;;;35.40;44.80;;;;;;5015187;28;20476;-81
2023/06/15 10:36:48;;;;;;;0.40;0.30;;;36.00;45.50;;;;;;5014543;28;20460;-81
2023/06/15 10:39:23;;;;;;;0.87;0.70;;;36.90;44.30;;;;;;5008401;28;20521;-81
2023/06/15 10:41:52;;;;;;;0.63;0.63;;;37.30;44.50;;;;;;5015344;28;20436;-79
2023/06/15 10:44:21;;;;;;;0.40;0.30;;;37.30;43.70;;;;;;5016184;28;20449;-80
2023/06/15 10:46:47;;;;;;;0.40;0.30;;;37.60;40.10;;;;;;5016801;28;20468;-79
2023/06/15 10:49:14;;;;;;;0.40;0.30;;;37.80;41.60;;;;;;5008850;28;20936;-81
2023/06/15 10:51:50;;;;;;;0.40;0.30;;;37.80;41.10;;;;;;5015281;28;20559;-80
2023/06/15 10:54:22;;;;;;;0.50;0.40;;;38.20;41.20;;;;;;5003874;28;20439;-80
2023/06/15 10:56:50;;;;;;;0.40;0.40;;;37.60;37.50;;;;;;5011930;28;20492;-80
2023/06/15 10:59:39;;;;;;;0.40;0.40;;;37.90;40.30;;;;;;5015378;28;20467;-79
2023/06/15 11:02:42;;;;;;;2.33;0.67;;;37.80;39.60;;;;;;5010775;28;20433;-80
2023/06/15 11:05:12;;;;;;;0.40;0.30;;;37.70;39.00;;;;;;5002743;28;20868;-80
2023/06/15 11:07:40;;;;;;;0.40;0.30;;;37.80;37.80;;;;;;5013935;28;20527;-80
2023/06/15 11:10:13;;;;;;;0.40;0.30;;;38.00;39.40;;;;;;5014062;28;20478;-81
2023/06/15 11:12:41;;;;;;;0.40;0.30;;;37.80;37.10;;;;;;5013969;28;20440;-80
2023/06/15 11:15:14;;;;;;;1.90;1.37;;;37.80;40.00;;;;;;5010500;28;20464;-80
2023/06/15 11:17:58;;;;;;;0.93;0.70;;;38.30;40.70;;;;;;5010917;28;20471;-80
2023/06/15 11:20:59;;;;;;;0.50;0.40;;;38.10;37.70;;;;;;5005076;28;20513;-80
2023/06/15 11:23:29;;;;;;;0.50;0.40;;;37.00;37.20;;;;;;5002778;28;20449;-80
2023/06/15 11:25:57;;;;;;;0.40;0.40;;;36.30;37.50;;;;;;5011812;28;20449;-79
2023/06/15 11:28:25;;;;;;;0.40;0.30;;;35.50;38.10;;;;;;5012485;28;20448;-80
2023/06/15 11:30:53;;;;;;;0.40;0.30;;;35.40;41.00;;;;;;5011065;28;21027;-79
2023/06/15 11:33:27;;;;;;;0.70;0.60;;;35.90;41.70;;;;;;5008346;28;20537;-81
2023/06/15 11:35:54;;;;;;;0.40;0.40;;;36.50;40.60;;;;;;5010208;28;20445;-80
2023/06/15 11:38:25;;;;;;;1.23;1.13;;;36.90;40.60;;;;;;5013806;28;20445;-79
2023/06/15 11:40:52;;;;;;;0.47;0.40;;;36.60;39.50;;;;;;5011756;28;20511;-77
2023/06/15 11:43:19;;;;;;;0.40;0.30;;;36.70;39.90;;;;;;5011270;28;20534;-80
2023/06/15 11:45:47;;;;;;;0.40;0.40;;;37.00;41.00;;;;;;5009929;28;20444;-79
2023/06/15 11:48:15;;;;;;;0.40;0.30;;;37.30;38.70;;;;;;5002726;28;20519;-81
2023/06/15 11:50:43;;;;;;;0.40;0.30;;;37.20;39.10;;;;;;5009927;28;20532;-80
2023/06/15 11:53:16;;;;;;;1.10;1.07;;;37.60;39.70;;;;;;5013481;28;20952;-80
2023/06/15 11:55:43;;;;;;;0.40;0.30;;;37.60;38.00;;;;;;5014112;28;20864;-80
2023/06/15 11:58:10;;;;;;;0.50;0.40;;;37.70;40.50;;;;;;5010282;28;20520;-80
2023/06/15 12:00:37;;;;;;;0.40;0.30;;;38.00;38.70;;;;;;5010585;28;20951;-80
2023/06/15 12:03:09;;;;;;;0.40;0.30;;;37.70;39.60;;;;;;5011742;28;20444;-81
2023/06/15 12:05:37;;;;;;;0.40;0.30;;;37.10;40.20;;;;;;5013906;28;20445;-80
2023/06/15 12:08:05;;;;;;;0.40;0.40;;;37.20;39.50;;;;;;5010342;28;20464;-80
2023/06/15 12:10:33;;;;;;;0.40;0.30;;;37.40;38.60;;;;;;5009156;28;20445;-80
2023/06/15 12:13:00;;;;;;;0.50;0.40;;;37.50;36.70;;;;;;5009996;28;20453;-78
2023/06/15 12:15:27;;;;;;;0.47;0.30;;;37.60;38.30;;;;;;5012882;28;20448;-81
2023/06/15 12:17:55;;;;;;;0.90;0.73;;;37.70;38.90;;;;;;5011389;28;20457;-80
2023/06/15 12:20:28;;;;;;;0.40;0.30;;;38.00;39.30;;;;;;5006696;28;20943;-80
2023/06/15 12:22:56;;;;;;;0.90;0.77;;;38.10;38.80;;;;;;5012563;28;20979;-77
2023/06/15 12:25:45;;;;;;;0.40;0.40;;;38.10;39.50;;;;;;5013996;28;20471;-81
2023/06/15 12:28:16;;;;;;;0.40;0.30;;;37.30;38.50;;;;;;5008267;28;20450;-80
2023/06/15 12:30:43;;;;;;;0.40;0.30;;;36.10;39.10;;;;;;5006992;28;20437;-81
2023/06/15 12:33:27;;;;;;;0.50;0.30;;;34.60;42.70;;;;;;5007741;28;20555;-80
2023/06/15 12:35:55;;;;;;;0.50;0.30;;;33.50;42.20;;;;;;5006492;28;20529;-80
2023/06/15 12:38:24;;;;;;;0.90;0.50;;;32.40;44.00;;;;;;5010802;28;20444;-80
2023/06/15 12:40:52;;;;;;;0.50;0.30;;;31.70;44.40;;;;;;5021180;28;20443;-79
2023/06/15 12:43:20;;;;;;;1.23;0.87;;;31.10;45.80;;;;;;5011866;28;20448;-79
2023/06/15 12:45:47;;;;;;;1.23;1.13;;;30.80;45.90;;;;;;5007839;28;20448;-78
2023/06/15 12:48:14;;;;;;;0.50;0.30;;;31.20;45.70;;;;;;5018560;28;20436;-79
2023/06/15 12:50:41;;;;;;;0.43;0.30;;;32.50;47.50;;;;;;5020881;28;20515;-80
2023/06/15 12:53:08;;;;;;;0.50;0.30;;;33.50;45.20;;;;;;5014936;28;20535;-80
2023/06/15 12:55:37;;;;;;;0.50;0.30;;;34.40;43.10;;;;;;5015500;28;20455;-80